sensor_id;sensor_type;location;lat;lon;timestamp;P1;durP1;ratioP1;P2;durP2;ratioP2
55913;SDS011;58179;48.776;9.124;2022-10-18T00:01:37;12.48;;;6.50;;
55913;SDS011;58179;48.776;9.124;2022-10-18T00:04:03;14.60;;;6.40;;
55913;SDS011;58179;48.776;9.124;2022-10-18T00:06:30;15.23;;;6.20;;
55913;SDS011;58179;48.776;9.124;2022-10-18T00:08:56;12.45;;;5.78;;
55913;SDS011;58179;48.776;9.124;2022-10-18T00:11:22;15.20;;;5.67;;
55913;SDS011;58179;48.776;9.124;2022-10-18T00:13:48;13.85;;;5.40;;
55913;SDS011;58179;48.776;9.124;2022-10-18T00:16:15;22.63;;;6.20;;
55913;SDS011;58179;48.776;9.124;2022-10-18T00:18:42;19.05;;;5.90;;
55913;SDS011;58179;48.776;9.124;2022-10-18T00:21:10;15.40;;;5.95;;
55913;SDS011;58179;48.776;9.124;2022-10-18T00:23:40;27.17;;;5.72;;
55913;SDS011;58179;48.776;9.124;2022-10-18T00:26:07;15.95;;;5.75;;
55913;SDS011;58179;48.776;9.124;2022-10-18T00:28:36;29.70;;;6.57;;
55913;SDS011;58179;48.776;9.124;2022-10-18T00:31:10;14.93;;;5.18;;
55913;SDS011;58179;48.776;9.124;2022-10-18T00:33:39;11.40;;;5.45;;
55913;SDS011;58179;48.776;9.124;2022-10-18T00:36:05;18.92;;;5.95;;
55913;SDS011;58179;48.776;9.124;2022-10-18T00:38:32;19.43;;;5.30;;
55913;SDS011;58179;48.776;9.124;2022-10-18T00:40:59;17.52;;;5.50;;
55913;SDS011;58179;48.776;9.124;2022-10-18T00:43:25;13.20;;;5.03;;
55913;SDS011;58179;48.776;9.124;2022-10-18T00:45:51;17.40;;;5.47;;
55913;SDS011;58179;48.776;9.124;2022-10-18T00:48:17;42.47;;;6.47;;
55913;SDS011;58179;48.776;9.124;2022-10-18T00:50:44;32.47;;;7.13;;
55913;SDS011;58179;48.776;9.124;2022-10-18T00:53:14;16.85;;;5.28;;
55913;SDS011;58179;48.776;9.124;2022-10-18T00:55:44;17.33;;;5.00;;
55913;SDS011;58179;48.776;9.124;2022-10-18T00:58:12;23.95;;;5.60;;
55913;SDS011;58179;48.776;9.124;2022-10-18T01:00:41;13.82;;;5.38;;
55913;SDS011;58179;48.776;9.124;2022-10-18T01:03:07;12.85;;;4.90;;
55913;SDS011;58179;48.776;9.124;2022-10-18T01:05:34;10.63;;;4.93;;
55913;SDS011;58179;48.776;9.124;2022-10-18T01:08:13;11.13;;;4.70;;
55913;SDS011;58179;48.776;9.124;2022-10-18T01:10:59;10.95;;;4.80;;
55913;SDS011;58179;48.776;9.124;2022-10-18T01:13:50;7.57;;;3.95;;
55913;SDS011;58179;48.776;9.124;2022-10-18T01:16:32;14.80;;;4.70;;
55913;SDS011;58179;48.776;9.124;2022-10-18T01:19:17;12.88;;;4.35;;
55913;SDS011;58179;48.776;9.124;2022-10-18T01:22:07;11.57;;;4.07;;
55913;SDS011;58179;48.776;9.124;2022-10-18T01:24:45;9.43;;;4.05;;
55913;SDS011;58179;48.776;9.124;2022-10-18T01:27:43;13.50;;;4.10;;
55913;SDS011;58179;48.776;9.124;2022-10-18T01:30:31;13.82;;;3.55;;
55913;SDS011;58179;48.776;9.124;2022-10-18T01:33:06;11.82;;;3.90;;
55913;SDS011;58179;48.776;9.124;2022-10-18T01:35:41;8.20;;;3.83;;
55913;SDS011;58179;48.776;9.124;2022-10-18T01:38:14;8.57;;;3.60;;
55913;SDS011;58179;48.776;9.124;2022-10-18T01:40:44;8.73;;;3.90;;
55913;SDS011;58179;48.776;9.124;2022-10-18T01:43:13;10.88;;;3.55;;
55913;SDS011;58179;48.776;9.124;2022-10-18T01:45:43;14.93;;;3.77;;
55913;SDS011;58179;48.776;9.124;2022-10-18T01:48:10;11.18;;;3.42;;
55913;SDS011;58179;48.776;9.124;2022-10-18T01:50:38;11.90;;;3.80;;
55913;SDS011;58179;48.776;9.124;2022-10-18T01:53:04;17.83;;;3.92;;
55913;SDS011;58179;48.776;9.124;2022-10-18T01:55:30;13.88;;;3.80;;
55913;SDS011;58179;48.776;9.124;2022-10-18T01:58:06;10.00;;;3.67;;
55913;SDS011;58179;48.776;9.124;2022-10-18T02:00:42;7.75;;;3.28;;
55913;SDS011;58179;48.776;9.124;2022-10-18T02:03:13;11.80;;;3.80;;
55913;SDS011;58179;48.776;9.124;2022-10-18T02:05:46;8.45;;;3.55;;
55913;SDS011;58179;48.776;9.124;2022-10-18T02:08:20;9.18;;;3.33;;
55913;SDS011;58179;48.776;9.124;2022-10-18T02:10:53;12.15;;;3.83;;
55913;SDS011;58179;48.776;9.124;2022-10-18T02:13:25;7.30;;;3.30;;
55913;SDS011;58179;48.776;9.124;2022-10-18T02:15:59;8.20;;;3.92;;
55913;SDS011;58179;48.776;9.124;2022-10-18T02:18:33;6.18;;;3.42;;
55913;SDS011;58179;48.776;9.124;2022-10-18T02:21:04;12.82;;;3.40;;
55913;SDS011;58179;48.776;9.124;2022-10-18T02:23:34;11.05;;;3.78;;
55913;SDS011;58179;48.776;9.124;2022-10-18T02:26:01;13.25;;;4.57;;
55913;SDS011;58179;48.776;9.124;2022-10-18T02:28:27;12.27;;;3.40;;
55913;SDS011;58179;48.776;9.124;2022-10-18T02:30:56;12.30;;;3.63;;
55913;SDS011;58179;48.776;9.124;2022-10-18T02:33:31;11.43;;;3.30;;
55913;SDS011;58179;48.776;9.124;2022-10-18T02:36:04;9.02;;;3.45;;
55913;SDS011;58179;48.776;9.124;2022-10-18T02:38:37;13.25;;;4.10;;
55913;SDS011;58179;48.776;9.124;2022-10-18T02:41:04;13.60;;;3.87;;
55913;SDS011;58179;48.776;9.124;2022-10-18T02:43:30;10.95;;;3.92;;
55913;SDS011;58179;48.776;9.124;2022-10-18T02:45:56;7.60;;;3.78;;
55913;SDS011;58179;48.776;9.124;2022-10-18T02:48:24;10.27;;;3.83;;
55913;SDS011;58179;48.776;9.124;2022-10-18T02:50:49;10.40;;;3.77;;
55913;SDS011;58179;48.776;9.124;2022-10-18T02:53:15;11.13;;;4.17;;
55913;SDS011;58179;48.776;9.124;2022-10-18T02:55:41;9.33;;;3.67;;
55913;SDS011;58179;48.776;9.124;2022-10-18T02:58:07;6.82;;;3.40;;
55913;SDS011;58179;48.776;9.124;2022-10-18T03:00:33;11.88;;;3.83;;
55913;SDS011;58179;48.776;9.124;2022-10-18T03:02:59;10.10;;;3.90;;
55913;SDS011;58179;48.776;9.124;2022-10-18T03:05:26;12.15;;;3.67;;
55913;SDS011;58179;48.776;9.124;2022-10-18T03:07:52;12.80;;;4.00;;
55913;SDS011;58179;48.776;9.124;2022-10-18T03:10:20;5.75;;;3.58;;
55913;SDS011;58179;48.776;9.124;2022-10-18T03:12:49;11.38;;;3.45;;
55913;SDS011;58179;48.776;9.124;2022-10-18T03:15:17;10.10;;;3.47;;
55913;SDS011;58179;48.776;9.124;2022-10-18T03:17:43;18.73;;;3.78;;
55913;SDS011;58179;48.776;9.124;2022-10-18T03:20:09;12.98;;;4.03;;
55913;SDS011;58179;48.776;9.124;2022-10-18T03:22:37;9.87;;;4.00;;
55913;SDS011;58179;48.776;9.124;2022-10-18T03:25:03;19.23;;;4.18;;
55913;SDS011;58179;48.776;9.124;2022-10-18T03:27:29;7.82;;;3.50;;
55913;SDS011;58179;48.776;9.124;2022-10-18T03:29:55;5.13;;;3.30;;
55913;SDS011;58179;48.776;9.124;2022-10-18T03:32:21;12.52;;;3.88;;
55913;SDS011;58179;48.776;9.124;2022-10-18T03:34:47;17.13;;;4.53;;
55913;SDS011;58179;48.776;9.124;2022-10-18T03:37:13;5.00;;;3.30;;
55913;SDS011;58179;48.776;9.124;2022-10-18T03:39:40;18.98;;;4.13;;
55913;SDS011;58179;48.776;9.124;2022-10-18T03:42:06;8.48;;;3.60;;
55913;SDS011;58179;48.776;9.124;2022-10-18T03:44:32;19.70;;;4.27;;
55913;SDS011;58179;48.776;9.124;2022-10-18T03:46:57;9.20;;;3.80;;
55913;SDS011;58179;48.776;9.124;2022-10-18T03:49:23;14.37;;;4.27;;
55913;SDS011;58179;48.776;9.124;2022-10-18T03:51:49;24.58;;;4.30;;
55913;SDS011;58179;48.776;9.124;2022-10-18T03:54:15;8.80;;;3.65;;
55913;SDS011;58179;48.776;9.124;2022-10-18T03:56:43;12.52;;;4.28;;
55913;SDS011;58179;48.776;9.124;2022-10-18T03:59:08;16.65;;;4.60;;
55913;SDS011;58179;48.776;9.124;2022-10-18T04:01:34;17.90;;;4.30;;
55913;SDS011;58179;48.776;9.124;2022-10-18T04:04:00;14.50;;;4.78;;
55913;SDS011;58179;48.776;9.124;2022-10-18T04:06:26;20.83;;;4.30;;
55913;SDS011;58179;48.776;9.124;2022-10-18T04:08:53;21.33;;;4.82;;
55913;SDS011;58179;48.776;9.124;2022-10-18T04:11:19;11.10;;;4.47;;
55913;SDS011;58179;48.776;9.124;2022-10-18T04:13:46;11.20;;;4.22;;
55913;SDS011;58179;48.776;9.124;2022-10-18T04:16:12;7.78;;;3.72;;
55913;SDS011;58179;48.776;9.124;2022-10-18T04:18:38;8.00;;;4.50;;
55913;SDS011;58179;48.776;9.124;2022-10-18T04:21:04;9.20;;;3.90;;
55913;SDS011;58179;48.776;9.124;2022-10-18T04:23:30;7.57;;;3.90;;
55913;SDS011;58179;48.776;9.124;2022-10-18T04:25:56;7.03;;;4.10;;
55913;SDS011;58179;48.776;9.124;2022-10-18T04:28:22;8.53;;;3.97;;
55913;SDS011;58179;48.776;9.124;2022-10-18T04:30:50;8.07;;;4.07;;
55913;SDS011;58179;48.776;9.124;2022-10-18T04:33:16;9.32;;;4.28;;
55913;SDS011;58179;48.776;9.124;2022-10-18T04:35:42;10.30;;;3.90;;
55913;SDS011;58179;48.776;9.124;2022-10-18T04:38:08;7.05;;;4.05;;
55913;SDS011;58179;48.776;9.124;2022-10-18T04:40:34;10.77;;;3.92;;
55913;SDS011;58179;48.776;9.124;2022-10-18T04:43:00;9.75;;;3.90;;
55913;SDS011;58179;48.776;9.124;2022-10-18T04:45:26;6.22;;;3.80;;
55913;SDS011;58179;48.776;9.124;2022-10-18T04:47:53;7.65;;;3.70;;
55913;SDS011;58179;48.776;9.124;2022-10-18T04:50:19;7.70;;;4.40;;
55913;SDS011;58179;48.776;9.124;2022-10-18T04:52:45;5.40;;;3.30;;
55913;SDS011;58179;48.776;9.124;2022-10-18T04:55:11;7.03;;;3.50;;
55913;SDS011;58179;48.776;9.124;2022-10-18T04:57:37;9.40;;;3.80;;
55913;SDS011;58179;48.776;9.124;2022-10-18T05:00:03;5.00;;;3.50;;
55913;SDS011;58179;48.776;9.124;2022-10-18T05:02:30;7.80;;;3.60;;
55913;SDS011;58179;48.776;9.124;2022-10-18T05:04:58;10.32;;;3.80;;
55913;SDS011;58179;48.776;9.124;2022-10-18T05:07:24;4.38;;;2.90;;
55913;SDS011;58179;48.776;9.124;2022-10-18T05:09:49;10.93;;;3.92;;
55913;SDS011;58179;48.776;9.124;2022-10-18T05:12:15;13.50;;;3.83;;
55913;SDS011;58179;48.776;9.124;2022-10-18T05:14:41;6.25;;;3.63;;
55913;SDS011;58179;48.776;9.124;2022-10-18T05:17:07;21.60;;;4.17;;
55913;SDS011;58179;48.776;9.124;2022-10-18T05:19:33;16.27;;;4.20;;
55913;SDS011;58179;48.776;9.124;2022-10-18T05:22:00;16.67;;;4.55;;
55913;SDS011;58179;48.776;9.124;2022-10-18T05:24:26;8.70;;;4.10;;
55913;SDS011;58179;48.776;9.124;2022-10-18T05:26:52;12.02;;;3.92;;
55913;SDS011;58179;48.776;9.124;2022-10-18T05:29:18;8.70;;;4.03;;
55913;SDS011;58179;48.776;9.124;2022-10-18T05:31:44;5.43;;;3.67;;
55913;SDS011;58179;48.776;9.124;2022-10-18T05:34:10;17.10;;;4.60;;
55913;SDS011;58179;48.776;9.124;2022-10-18T05:36:36;15.40;;;4.20;;
55913;SDS011;58179;48.776;9.124;2022-10-18T05:39:03;10.75;;;4.72;;
55913;SDS011;58179;48.776;9.124;2022-10-18T05:41:30;9.77;;;4.38;;
55913;SDS011;58179;48.776;9.124;2022-10-18T05:43:56;10.65;;;3.92;;
55913;SDS011;58179;48.776;9.124;2022-10-18T05:46:22;17.43;;;4.70;;
55913;SDS011;58179;48.776;9.124;2022-10-18T05:48:48;11.68;;;4.60;;
55913;SDS011;58179;48.776;9.124;2022-10-18T05:51:15;11.55;;;4.60;;
55913;SDS011;58179;48.776;9.124;2022-10-18T05:53:41;12.20;;;4.13;;
55913;SDS011;58179;48.776;9.124;2022-10-18T05:56:08;14.80;;;5.03;;
55913;SDS011;58179;48.776;9.124;2022-10-18T05:58:38;9.15;;;4.30;;
55913;SDS011;58179;48.776;9.124;2022-10-18T06:01:05;10.93;;;4.15;;
55913;SDS011;58179;48.776;9.124;2022-10-18T06:03:33;11.82;;;4.70;;
55913;SDS011;58179;48.776;9.124;2022-10-18T06:05:59;15.23;;;4.82;;
55913;SDS011;58179;48.776;9.124;2022-10-18T06:08:26;12.60;;;5.00;;
55913;SDS011;58179;48.776;9.124;2022-10-18T06:10:51;12.85;;;4.45;;
55913;SDS011;58179;48.776;9.124;2022-10-18T06:13:19;10.60;;;4.50;;
55913;SDS011;58179;48.776;9.124;2022-10-18T06:15:45;12.90;;;3.92;;
55913;SDS011;58179;48.776;9.124;2022-10-18T06:18:11;8.52;;;4.10;;
55913;SDS011;58179;48.776;9.124;2022-10-18T06:20:36;10.35;;;4.45;;
55913;SDS011;58179;48.776;9.124;2022-10-18T06:23:02;7.65;;;4.20;;
55913;SDS011;58179;48.776;9.124;2022-10-18T06:25:28;12.45;;;4.43;;
55913;SDS011;58179;48.776;9.124;2022-10-18T06:27:54;9.00;;;4.07;;
55913;SDS011;58179;48.776;9.124;2022-10-18T06:30:21;7.03;;;4.10;;
55913;SDS011;58179;48.776;9.124;2022-10-18T06:32:47;10.90;;;4.32;;
55913;SDS011;58179;48.776;9.124;2022-10-18T06:35:13;9.82;;;4.28;;
55913;SDS011;58179;48.776;9.124;2022-10-18T06:37:39;9.75;;;4.10;;
55913;SDS011;58179;48.776;9.124;2022-10-18T06:40:05;13.38;;;4.40;;
55913;SDS011;58179;48.776;9.124;2022-10-18T06:42:32;11.43;;;4.07;;
55913;SDS011;58179;48.776;9.124;2022-10-18T06:44:58;14.55;;;4.50;;
55913;SDS011;58179;48.776;9.124;2022-10-18T06:47:26;15.50;;;4.22;;
55913;SDS011;58179;48.776;9.124;2022-10-18T06:49:52;13.40;;;4.05;;
55913;SDS011;58179;48.776;9.124;2022-10-18T06:52:17;8.50;;;3.90;;
55913;SDS011;58179;48.776;9.124;2022-10-18T06:54:46;7.03;;;3.67;;
55913;SDS011;58179;48.776;9.124;2022-10-18T06:57:12;9.00;;;3.70;;
55913;SDS011;58179;48.776;9.124;2022-10-18T06:59:38;8.20;;;3.77;;
55913;SDS011;58179;48.776;9.124;2022-10-18T07:02:04;9.70;;;3.53;;
55913;SDS011;58179;48.776;9.124;2022-10-18T07:04:31;8.80;;;3.60;;
55913;SDS011;58179;48.776;9.124;2022-10-18T07:06:57;7.35;;;3.95;;
55913;SDS011;58179;48.776;9.124;2022-10-18T07:09:23;12.23;;;3.90;;
55913;SDS011;58179;48.776;9.124;2022-10-18T07:11:49;12.90;;;3.87;;
55913;SDS011;58179;48.776;9.124;2022-10-18T07:14:16;12.45;;;3.90;;
55913;SDS011;58179;48.776;9.124;2022-10-18T07:16:42;8.55;;;3.50;;
55913;SDS011;58179;48.776;9.124;2022-10-18T07:19:08;9.82;;;3.88;;
55913;SDS011;58179;48.776;9.124;2022-10-18T07:21:35;10.13;;;3.63;;
55913;SDS011;58179;48.776;9.124;2022-10-18T07:24:01;6.65;;;3.78;;
55913;SDS011;58179;48.776;9.124;2022-10-18T07:26:28;8.05;;;3.80;;
55913;SDS011;58179;48.776;9.124;2022-10-18T07:28:58;18.33;;;4.67;;
55913;SDS011;58179;48.776;9.124;2022-10-18T07:31:26;4.53;;;3.50;;
55913;SDS011;58179;48.776;9.124;2022-10-18T07:33:52;10.27;;;3.80;;
55913;SDS011;58179;48.776;9.124;2022-10-18T07:36:19;7.82;;;4.00;;
55913;SDS011;58179;48.776;9.124;2022-10-18T07:38:47;5.95;;;3.83;;
55913;SDS011;58179;48.776;9.124;2022-10-18T07:41:13;7.55;;;4.20;;
55913;SDS011;58179;48.776;9.124;2022-10-18T07:43:40;11.60;;;4.70;;
55913;SDS011;58179;48.776;9.124;2022-10-18T07:46:11;7.88;;;4.18;;
55913;SDS011;58179;48.776;9.124;2022-10-18T07:48:38;10.05;;;3.80;;
55913;SDS011;58179;48.776;9.124;2022-10-18T07:51:05;6.30;;;4.00;;
55913;SDS011;58179;48.776;9.124;2022-10-18T07:53:31;14.27;;;4.22;;
55913;SDS011;58179;48.776;9.124;2022-10-18T07:56:00;8.48;;;3.75;;
55913;SDS011;58179;48.776;9.124;2022-10-18T07:58:27;11.82;;;4.25;;
55913;SDS011;58179;48.776;9.124;2022-10-18T08:00:55;11.00;;;4.10;;
55913;SDS011;58179;48.776;9.124;2022-10-18T08:03:21;9.00;;;3.55;;
55913;SDS011;58179;48.776;9.124;2022-10-18T08:05:50;7.80;;;3.67;;
55913;SDS011;58179;48.776;9.124;2022-10-18T08:08:17;11.25;;;3.80;;
55913;SDS011;58179;48.776;9.124;2022-10-18T08:10:44;10.68;;;3.88;;
55913;SDS011;58179;48.776;9.124;2022-10-18T08:13:11;8.33;;;3.90;;
55913;SDS011;58179;48.776;9.124;2022-10-18T08:15:37;10.80;;;3.60;;
55913;SDS011;58179;48.776;9.124;2022-10-18T08:18:03;11.98;;;4.00;;
55913;SDS011;58179;48.776;9.124;2022-10-18T08:20:29;6.85;;;3.95;;
55913;SDS011;58179;48.776;9.124;2022-10-18T08:22:57;10.82;;;3.95;;
55913;SDS011;58179;48.776;9.124;2022-10-18T08:25:23;10.38;;;4.00;;
55913;SDS011;58179;48.776;9.124;2022-10-18T08:27:49;12.90;;;4.10;;
55913;SDS011;58179;48.776;9.124;2022-10-18T08:30:16;10.83;;;3.47;;
55913;SDS011;58179;48.776;9.124;2022-10-18T08:32:42;5.18;;;3.70;;
55913;SDS011;58179;48.776;9.124;2022-10-18T08:35:08;8.32;;;4.05;;
55913;SDS011;58179;48.776;9.124;2022-10-18T08:37:34;6.70;;;3.90;;
55913;SDS011;58179;48.776;9.124;2022-10-18T08:40:00;8.25;;;3.83;;
55913;SDS011;58179;48.776;9.124;2022-10-18T08:42:30;8.93;;;3.80;;
55913;SDS011;58179;48.776;9.124;2022-10-18T08:45:13;10.68;;;4.10;;
55913;SDS011;58179;48.776;9.124;2022-10-18T08:47:42;6.90;;;3.50;;
55913;SDS011;58179;48.776;9.124;2022-10-18T08:50:11;8.02;;;3.80;;
55913;SDS011;58179;48.776;9.124;2022-10-18T08:52:42;7.72;;;4.05;;
55913;SDS011;58179;48.776;9.124;2022-10-18T08:55:16;8.43;;;3.50;;
55913;SDS011;58179;48.776;9.124;2022-10-18T08:57:48;11.37;;;3.77;;
55913;SDS011;58179;48.776;9.124;2022-10-18T09:00:16;11.73;;;4.13;;
55913;SDS011;58179;48.776;9.124;2022-10-18T09:02:57;8.63;;;3.50;;
55913;SDS011;58179;48.776;9.124;2022-10-18T09:05:43;7.18;;;3.35;;
55913;SDS011;58179;48.776;9.124;2022-10-18T09:08:29;5.78;;;3.33;;
55913;SDS011;58179;48.776;9.124;2022-10-18T09:11:17;10.02;;;3.50;;
55913;SDS011;58179;48.776;9.124;2022-10-18T09:14:02;8.63;;;3.30;;
55913;SDS011;58179;48.776;9.124;2022-10-18T09:17:07;5.32;;;2.80;;
55913;SDS011;58179;48.776;9.124;2022-10-18T09:22:42;8.63;;;3.45;;
55913;SDS011;58179;48.776;9.124;2022-10-18T09:25:17;9.80;;;3.50;;
55913;SDS011;58179;48.776;9.124;2022-10-18T09:27:49;6.28;;;3.13;;
55913;SDS011;58179;48.776;9.124;2022-10-18T09:30:28;5.70;;;3.10;;
55913;SDS011;58179;48.776;9.124;2022-10-18T09:33:08;9.07;;;3.03;;
55913;SDS011;58179;48.776;9.124;2022-10-18T09:35:49;9.57;;;3.70;;
55913;SDS011;58179;48.776;9.124;2022-10-18T09:38:21;10.70;;;3.70;;
55913;SDS011;58179;48.776;9.124;2022-10-18T09:40:53;9.80;;;3.80;;
55913;SDS011;58179;48.776;9.124;2022-10-18T09:43:23;9.70;;;3.83;;
55913;SDS011;58179;48.776;9.124;2022-10-18T09:46:02;6.97;;;3.50;;
55913;SDS011;58179;48.776;9.124;2022-10-18T09:48:32;8.50;;;3.72;;
55913;SDS011;58179;48.776;9.124;2022-10-18T09:51:07;7.72;;;3.80;;
55913;SDS011;58179;48.776;9.124;2022-10-18T09:53:40;10.38;;;3.92;;
55913;SDS011;58179;48.776;9.124;2022-10-18T09:56:17;6.65;;;2.78;;
55913;SDS011;58179;48.776;9.124;2022-10-18T09:58:50;10.32;;;3.35;;
55913;SDS011;58179;48.776;9.124;2022-10-18T10:01:17;12.60;;;4.05;;
55913;SDS011;58179;48.776;9.124;2022-10-18T10:03:46;6.85;;;3.60;;
55913;SDS011;58179;48.776;9.124;2022-10-18T10:06:21;7.57;;;3.72;;
55913;SDS011;58179;48.776;9.124;2022-10-18T10:08:53;7.57;;;3.30;;
55913;SDS011;58179;48.776;9.124;2022-10-18T10:11:27;4.97;;;3.33;;
55913;SDS011;58179;48.776;9.124;2022-10-18T10:13:57;6.57;;;3.53;;
55913;SDS011;58179;48.776;9.124;2022-10-18T10:16:43;4.15;;;3.13;;
55913;SDS011;58179;48.776;9.124;2022-10-18T10:19:15;5.20;;;3.40;;
55913;SDS011;58179;48.776;9.124;2022-10-18T10:21:50;6.78;;;3.65;;
55913;SDS011;58179;48.776;9.124;2022-10-18T10:24:24;4.27;;;3.30;;
55913;SDS011;58179;48.776;9.124;2022-10-18T10:27:13;5.30;;;2.83;;
55913;SDS011;58179;48.776;9.124;2022-10-18T10:29:48;4.85;;;3.08;;
55913;SDS011;58179;48.776;9.124;2022-10-18T10:32:23;5.97;;;3.50;;
55913;SDS011;58179;48.776;9.124;2022-10-18T10:34:55;5.85;;;3.30;;
55913;SDS011;58179;48.776;9.124;2022-10-18T10:37:27;6.93;;;3.03;;
55913;SDS011;58179;48.776;9.124;2022-10-18T10:40:04;5.78;;;3.00;;
55913;SDS011;58179;48.776;9.124;2022-10-18T10:42:52;5.45;;;2.88;;
55913;SDS011;58179;48.776;9.124;2022-10-18T10:45:32;4.85;;;2.95;;
55913;SDS011;58179;48.776;9.124;2022-10-18T10:48:03;7.88;;;3.30;;
55913;SDS011;58179;48.776;9.124;2022-10-18T10:53:36;9.23;;;3.80;;
55913;SDS011;58179;48.776;9.124;2022-10-18T10:56:13;8.90;;;3.50;;
55913;SDS011;58179;48.776;9.124;2022-10-18T10:58:45;8.95;;;4.05;;
55913;SDS011;58179;48.776;9.124;2022-10-18T11:01:16;8.52;;;3.75;;
55913;SDS011;58179;48.776;9.124;2022-10-18T11:03:46;8.40;;;4.03;;
55913;SDS011;58179;48.776;9.124;2022-10-18T11:09:11;5.43;;;3.47;;
55913;SDS011;58179;48.776;9.124;2022-10-18T11:12:09;5.32;;;3.47;;
55913;SDS011;58179;48.776;9.124;2022-10-18T11:14:44;6.13;;;3.80;;
55913;SDS011;58179;48.776;9.124;2022-10-18T11:17:19;5.85;;;3.40;;
55913;SDS011;58179;48.776;9.124;2022-10-18T11:19:58;6.30;;;3.97;;
55913;SDS011;58179;48.776;9.124;2022-10-18T11:22:40;7.45;;;3.58;;
55913;SDS011;58179;48.776;9.124;2022-10-18T11:25:13;7.95;;;3.50;;
55913;SDS011;58179;48.776;9.124;2022-10-18T11:27:41;9.70;;;3.70;;
55913;SDS011;58179;48.776;9.124;2022-10-18T11:30:18;7.57;;;3.63;;
55913;SDS011;58179;48.776;9.124;2022-10-18T11:33:05;7.28;;;3.78;;
55913;SDS011;58179;48.776;9.124;2022-10-18T11:35:47;6.63;;;3.58;;
55913;SDS011;58179;48.776;9.124;2022-10-18T11:38:22;8.80;;;4.03;;
55913;SDS011;58179;48.776;9.124;2022-10-18T11:43:52;7.55;;;3.08;;
55913;SDS011;58179;48.776;9.124;2022-10-18T11:46:24;8.43;;;3.33;;
55913;SDS011;58179;48.776;9.124;2022-10-18T11:49:09;4.70;;;2.97;;
55913;SDS011;58179;48.776;9.124;2022-10-18T11:52:05;4.65;;;3.13;;
55913;SDS011;58179;48.776;9.124;2022-10-18T11:54:44;4.40;;;2.92;;
55913;SDS011;58179;48.776;9.124;2022-10-18T11:57:36;5.90;;;3.10;;
55913;SDS011;58179;48.776;9.124;2022-10-18T12:00:22;5.50;;;2.67;;
55913;SDS011;58179;48.776;9.124;2022-10-18T12:03:10;7.17;;;3.10;;
55913;SDS011;58179;48.776;9.124;2022-10-18T12:05:51;5.20;;;3.50;;
55913;SDS011;58179;48.776;9.124;2022-10-18T12:08:22;8.50;;;3.38;;
55913;SDS011;58179;48.776;9.124;2022-10-18T12:10:54;5.32;;;2.67;;
55913;SDS011;58179;48.776;9.124;2022-10-18T12:13:24;8.45;;;2.25;;
55913;SDS011;58179;48.776;9.124;2022-10-18T12:15:58;4.93;;;1.80;;
55913;SDS011;58179;48.776;9.124;2022-10-18T12:18:26;3.28;;;1.52;;
55913;SDS011;58179;48.776;9.124;2022-10-18T12:20:54;3.30;;;1.70;;
55913;SDS011;58179;48.776;9.124;2022-10-18T12:23:27;2.80;;;1.60;;
55913;SDS011;58179;48.776;9.124;2022-10-18T12:26:02;4.43;;;1.65;;
55913;SDS011;58179;48.776;9.124;2022-10-18T12:28:36;4.85;;;1.67;;
55913;SDS011;58179;48.776;9.124;2022-10-18T12:31:17;4.78;;;1.88;;
55913;SDS011;58179;48.776;9.124;2022-10-18T12:33:49;5.07;;;1.90;;
55913;SDS011;58179;48.776;9.124;2022-10-18T12:36:33;7.97;;;2.05;;
55913;SDS011;58179;48.776;9.124;2022-10-18T12:39:20;9.32;;;2.10;;
55913;SDS011;58179;48.776;9.124;2022-10-18T12:41:49;4.53;;;1.95;;
55913;SDS011;58179;48.776;9.124;2022-10-18T12:44:20;8.80;;;2.40;;
55913;SDS011;58179;48.776;9.124;2022-10-18T12:46:54;6.93;;;2.00;;
55913;SDS011;58179;48.776;9.124;2022-10-18T12:49:23;4.85;;;2.00;;
55913;SDS011;58179;48.776;9.124;2022-10-18T12:51:54;3.67;;;1.63;;
55913;SDS011;58179;48.776;9.124;2022-10-18T12:54:24;5.55;;;2.00;;
55913;SDS011;58179;48.776;9.124;2022-10-18T12:56:53;5.28;;;2.10;;
55913;SDS011;58179;48.776;9.124;2022-10-18T13:02:22;6.45;;;2.60;;
55913;SDS011;58179;48.776;9.124;2022-10-18T13:04:53;7.80;;;3.03;;
55913;SDS011;58179;48.776;9.124;2022-10-18T13:07:21;8.50;;;2.67;;
55913;SDS011;58179;48.776;9.124;2022-10-18T13:13:18;5.13;;;2.50;;
55913;SDS011;58179;48.776;9.124;2022-10-18T13:16:25;8.98;;;3.00;;
55913;SDS011;58179;48.776;9.124;2022-10-18T13:19:08;10.13;;;2.90;;
55913;SDS011;58179;48.776;9.124;2022-10-18T13:21:47;7.55;;;2.90;;
55913;SDS011;58179;48.776;9.124;2022-10-18T13:24:29;9.68;;;2.88;;
55913;SDS011;58179;48.776;9.124;2022-10-18T13:27:09;5.05;;;2.22;;
55913;SDS011;58179;48.776;9.124;2022-10-18T13:30:10;7.63;;;2.10;;
55913;SDS011;58179;48.776;9.124;2022-10-18T13:32:57;6.10;;;2.00;;
55913;SDS011;58179;48.776;9.124;2022-10-18T13:35:44;4.13;;;1.90;;
55913;SDS011;58179;48.776;9.124;2022-10-18T13:38:25;5.88;;;2.03;;
55913;SDS011;58179;48.776;9.124;2022-10-18T13:41:11;4.70;;;2.20;;
55913;SDS011;58179;48.776;9.124;2022-10-18T13:43:57;4.78;;;2.00;;
55913;SDS011;58179;48.776;9.124;2022-10-18T13:49:37;5.25;;;1.60;;
55913;SDS011;58179;48.776;9.124;2022-10-18T13:52:20;3.35;;;1.27;;
55913;SDS011;58179;48.776;9.124;2022-10-18T13:55:03;3.85;;;1.50;;
55913;SDS011;58179;48.776;9.124;2022-10-18T13:57:50;2.50;;;1.27;;
55913;SDS011;58179;48.776;9.124;2022-10-18T14:00:34;2.07;;;1.20;;
55913;SDS011;58179;48.776;9.124;2022-10-18T14:03:23;3.40;;;1.40;;
55913;SDS011;58179;48.776;9.124;2022-10-18T14:06:15;3.45;;;1.35;;
55913;SDS011;58179;48.776;9.124;2022-10-18T14:08:45;9.40;;;1.58;;
55913;SDS011;58179;48.776;9.124;2022-10-18T14:11:20;2.50;;;1.40;;
55913;SDS011;58179;48.776;9.124;2022-10-18T14:13:53;3.15;;;1.42;;
55913;SDS011;58179;48.776;9.124;2022-10-18T14:16:32;4.53;;;2.10;;
55913;SDS011;58179;48.776;9.124;2022-10-18T14:19:14;6.07;;;2.05;;
55913;SDS011;58179;48.776;9.124;2022-10-18T14:21:49;3.55;;;1.92;;
55913;SDS011;58179;48.776;9.124;2022-10-18T14:24:23;3.40;;;1.90;;
55913;SDS011;58179;48.776;9.124;2022-10-18T14:27:11;4.95;;;1.98;;
55913;SDS011;58179;48.776;9.124;2022-10-18T14:29:41;7.32;;;2.58;;
55913;SDS011;58179;48.776;9.124;2022-10-18T14:32:07;5.95;;;2.38;;
55913;SDS011;58179;48.776;9.124;2022-10-18T14:34:35;4.97;;;2.40;;
55913;SDS011;58179;48.776;9.124;2022-10-18T14:37:03;7.75;;;2.92;;
55913;SDS011;58179;48.776;9.124;2022-10-18T14:39:29;5.85;;;2.95;;
55913;SDS011;58179;48.776;9.124;2022-10-18T14:41:57;5.10;;;3.23;;
55913;SDS011;58179;48.776;9.124;2022-10-18T14:44:24;5.90;;;2.72;;
55913;SDS011;58179;48.776;9.124;2022-10-18T14:46:52;8.70;;;3.15;;
55913;SDS011;58179;48.776;9.124;2022-10-18T14:49:24;10.05;;;3.40;;
55913;SDS011;58179;48.776;9.124;2022-10-18T14:51:51;5.50;;;3.10;;
55913;SDS011;58179;48.776;9.124;2022-10-18T14:54:23;5.45;;;2.53;;
55913;SDS011;58179;48.776;9.124;2022-10-18T14:56:52;6.05;;;2.97;;
55913;SDS011;58179;48.776;9.124;2022-10-18T14:59:19;4.33;;;2.30;;
55913;SDS011;58179;48.776;9.124;2022-10-18T15:01:53;6.32;;;2.78;;
55913;SDS011;58179;48.776;9.124;2022-10-18T15:04:22;6.28;;;3.28;;
55913;SDS011;58179;48.776;9.124;2022-10-18T15:06:55;5.13;;;2.58;;
55913;SDS011;58179;48.776;9.124;2022-10-18T15:09:23;5.95;;;2.50;;
55913;SDS011;58179;48.776;9.124;2022-10-18T15:11:50;6.90;;;2.72;;
55913;SDS011;58179;48.776;9.124;2022-10-18T15:14:18;5.65;;;2.63;;
55913;SDS011;58179;48.776;9.124;2022-10-18T15:16:46;5.72;;;2.78;;
55913;SDS011;58179;48.776;9.124;2022-10-18T15:19:26;4.97;;;3.00;;
55913;SDS011;58179;48.776;9.124;2022-10-18T15:21:56;9.23;;;3.63;;
55913;SDS011;58179;48.776;9.124;2022-10-18T15:24:34;4.57;;;2.97;;
55913;SDS011;58179;48.776;9.124;2022-10-18T15:27:07;6.20;;;3.10;;
55913;SDS011;58179;48.776;9.124;2022-10-18T15:29:38;6.27;;;3.30;;